PGT118H LTBS-LTFJ
Flight info
| Callsign | PGT118H |
|---|---|
| Flight time | 0h 51m |
| Altitude | 36000 |
| Route | RIVBU DCT BAGLU DCT ATGIT UT30 SIVKU UL610 ETAMP |
| Aircraft | A320/M-SDE3FGHIRWY/LB1 |
Departure
| Time | 2026-04-25 11:19 |
|---|---|
| Airport | Dalaman International Airport (LTBS) |
Arrival
| Time | 2026-04-25 12:11 |
|---|---|
| Airport | Istanbul Sabiha Gökçen International Airport (LTFJ) |
| Time | Latitude | Longitude | Altitude | Speed | Heading |
|---|---|---|---|---|---|
| 2026-04-25 10:59 | 36.72076 | 28.78993 | 14 ft | 0 kts | 285° |
| 2026-04-25 11:10 | 36.72070 | 28.79021 | 14 ft | 4 kts | 285° |
| 2026-04-25 11:10 | 36.72066 | 28.79037 | 12 ft | 4 kts | 280° |
| 2026-04-25 11:10 | 36.72075 | 28.79073 | 14 ft | 4 kts | 211° |
| 2026-04-25 11:10 | 36.72099 | 28.79084 | 13 ft | 4 kts | 195° |
| 2026-04-25 11:11 | 36.72105 | 28.79086 | 12 ft | 0 kts | 195° |
| 2026-04-25 11:13 | 36.72104 | 28.79086 | 12 ft | 1 kts | 195° |
| 2026-04-25 11:13 | 36.72077 | 28.79077 | 13 ft | 8 kts | 195° |
| 2026-04-25 11:13 | 36.72004 | 28.79051 | 12 ft | 13 kts | 195° |
| 2026-04-25 11:14 | 36.71910 | 28.79019 | 12 ft | 15 kts | 195° |
| 2026-04-25 11:14 | 36.71805 | 28.78982 | 12 ft | 17 kts | 195° |
| 2026-04-25 11:14 | 36.71687 | 28.78941 | 12 ft | 19 kts | 195° |
| 2026-04-25 11:14 | 36.71555 | 28.78896 | 12 ft | 21 kts | 195° |
| 2026-04-25 11:15 | 36.71421 | 28.78850 | 13 ft | 16 kts | 196° |
| 2026-04-25 11:15 | 36.71359 | 28.78850 | 14 ft | 8 kts | 129° |
| 2026-04-25 11:15 | 36.71339 | 28.78940 | 13 ft | 14 kts | 103° |
| 2026-04-25 11:15 | 36.71299 | 28.79029 | 13 ft | 12 kts | 168° |
| 2026-04-25 11:16 | 36.71075 | 28.78955 | 13 ft | 19 kts | 195° |
| 2026-04-25 11:16 | 36.70942 | 28.78910 | 13 ft | 21 kts | 194° |
| 2026-04-25 11:16 | 36.70795 | 28.78860 | 13 ft | 23 kts | 195° |
| 2026-04-25 11:17 | 36.70635 | 28.78806 | 13 ft | 25 kts | 195° |
| 2026-04-25 11:17 | 36.70466 | 28.78748 | 13 ft | 26 kts | 195° |
| 2026-04-25 11:17 | 36.70286 | 28.78688 | 13 ft | 27 kts | 195° |
| 2026-04-25 11:17 | 36.70131 | 28.78636 | 13 ft | 17 kts | 187° |
| 2026-04-25 11:18 | 36.70049 | 28.78716 | 13 ft | 17 kts | 105° |
| 2026-04-25 11:18 | 36.70061 | 28.78825 | 13 ft | 7 kts | 26° |
| 2026-04-25 11:18 | 36.70087 | 28.78834 | 13 ft | 0 kts | 14° |
| 2026-04-25 11:18 | 36.70091 | 28.78835 | 13 ft | 5 kts | 14° |
| 2026-04-25 11:19 | 36.70378 | 28.78932 | 13 ft | 82 kts | 15° |
| 2026-04-25 11:19 | 36.71146 | 28.79193 | 13 ft | 143 kts | 15° |
| 2026-04-25 11:19 | 36.72203 | 28.79559 | 323 ft | 166 kts | 14° |
| 2026-04-25 11:19 | 36.73299 | 28.80035 | 1060 ft | 167 kts | 27° |
| 2026-04-25 11:20 | 36.74293 | 28.80778 | 1861 ft | 166 kts | 32° |
| 2026-04-25 11:20 | 36.75321 | 28.81520 | 2393 ft | 180 kts | 33° |
| 2026-04-25 11:20 | 36.76452 | 28.82343 | 2767 ft | 198 kts | 32° |
| 2026-04-25 11:20 | 36.77702 | 28.83265 | 3114 ft | 219 kts | 33° |
| 2026-04-25 11:21 | 36.79092 | 28.84300 | 3397 ft | 247 kts | 32° |
| 2026-04-25 11:21 | 36.80641 | 28.85458 | 3923 ft | 269 kts | 32° |
| 2026-04-25 11:21 | 36.82272 | 28.86680 | 4806 ft | 277 kts | 32° |
| 2026-04-25 11:21 | 36.83950 | 28.87928 | 5732 ft | 284 kts | 32° |
| 2026-04-25 11:22 | 36.85752 | 28.88975 | 6637 ft | 290 kts | 21° |
| 2026-04-25 11:22 | 36.87020 | 28.89535 | 7215 ft | 292 kts | 20° |
| 2026-04-25 11:22 | 36.88933 | 28.90394 | 8206 ft | 292 kts | 20° |
| 2026-04-25 11:22 | 36.90856 | 28.91252 | 9119 ft | 297 kts | 20° |
| 2026-04-25 11:23 | 36.93473 | 28.92410 | 10196 ft | 306 kts | 20° |
| 2026-04-25 11:23 | 36.95546 | 28.93340 | 10614 ft | 328 kts | 21° |
| 2026-04-25 11:23 | 36.97761 | 28.94369 | 10949 ft | 349 kts | 21° |
| 2026-04-25 11:23 | 37.00075 | 28.95460 | 11577 ft | 359 kts | 22° |
| 2026-04-25 11:24 | 37.02314 | 28.96860 | 12395 ft | 361 kts | 33° |
| 2026-04-25 11:24 | 37.03702 | 28.98096 | 12937 ft | 363 kts | 39° |
| 2026-04-25 11:24 | 37.05713 | 29.00031 | 13729 ft | 366 kts | 39° |
| 2026-04-25 11:24 | 37.07721 | 29.01952 | 14413 ft | 370 kts | 38° |
| 2026-04-25 11:25 | 37.09779 | 29.03911 | 15104 ft | 373 kts | 39° |
| 2026-04-25 11:25 | 37.11858 | 29.05889 | 15799 ft | 377 kts | 38° |
| 2026-04-25 11:25 | 37.13955 | 29.07888 | 16502 ft | 381 kts | 38° |
| 2026-04-25 11:25 | 37.15979 | 29.10053 | 17164 ft | 383 kts | 46° |
| 2026-04-25 11:26 | 37.17865 | 29.12434 | 17846 ft | 386 kts | 47° |
| 2026-04-25 11:26 | 37.19759 | 29.14836 | 18485 ft | 390 kts | 47° |
| 2026-04-25 11:26 | 37.21680 | 29.17273 | 19050 ft | 394 kts | 47° |
| 2026-04-25 11:26 | 37.23611 | 29.19716 | 19631 ft | 397 kts | 46° |
| 2026-04-25 11:27 | 37.25564 | 29.22181 | 20198 ft | 400 kts | 47° |
| 2026-04-25 11:27 | 37.27532 | 29.24665 | 20748 ft | 403 kts | 47° |
| 2026-04-25 11:27 | 37.29576 | 29.27100 | 21233 ft | 409 kts | 40° |
| 2026-04-25 11:27 | 37.31115 | 29.28486 | 21574 ft | 413 kts | 33° |
| 2026-04-25 11:28 | 37.34628 | 29.30522 | 22278 ft | 420 kts | 18° |
| 2026-04-25 11:28 | 37.37468 | 29.31268 | 22798 ft | 425 kts | 6° |
| 2026-04-25 11:28 | 37.40433 | 29.31399 | 23317 ft | 429 kts | 1° |
| 2026-04-25 11:28 | 37.43427 | 29.31438 | 23788 ft | 432 kts | 1° |
| 2026-04-25 11:29 | 37.46442 | 29.31486 | 24220 ft | 434 kts | 1° |
| 2026-04-25 11:29 | 37.49471 | 29.31540 | 24668 ft | 436 kts | 1° |
| 2026-04-25 11:29 | 37.52510 | 29.31596 | 25135 ft | 437 kts | 1° |
| 2026-04-25 11:29 | 37.55554 | 29.31649 | 25583 ft | 438 kts | 1° |
| 2026-04-25 11:30 | 37.58610 | 29.31697 | 26002 ft | 440 kts | 1° |
| 2026-04-25 11:30 | 37.61673 | 29.31744 | 26416 ft | 442 kts | 1° |
| 2026-04-25 11:30 | 37.64729 | 29.31793 | 26851 ft | 444 kts | 1° |
| 2026-04-25 11:30 | 37.67827 | 29.31849 | 27305 ft | 446 kts | 1° |
| 2026-04-25 11:31 | 37.70944 | 29.31907 | 27827 ft | 449 kts | 1° |
| 2026-04-25 11:31 | 37.74072 | 29.31964 | 28274 ft | 451 kts | 1° |
| 2026-04-25 11:31 | 37.77221 | 29.32018 | 28631 ft | 454 kts | 1° |
| 2026-04-25 11:31 | 37.80388 | 29.32070 | 28981 ft | 456 kts | 0° |
| 2026-04-25 11:32 | 37.83568 | 29.32121 | 29358 ft | 458 kts | 0° |
| 2026-04-25 11:32 | 37.86764 | 29.32172 | 29675 ft | 461 kts | 0° |
| 2026-04-25 11:32 | 37.89979 | 29.32224 | 30018 ft | 463 kts | 0° |
| 2026-04-25 11:32 | 37.93214 | 29.32277 | 30316 ft | 465 kts | 0° |
| 2026-04-25 11:33 | 37.96460 | 29.32337 | 30604 ft | 466 kts | 1° |
| 2026-04-25 11:33 | 37.99677 | 29.32830 | 30870 ft | 469 kts | 13° |
| 2026-04-25 11:33 | 38.02769 | 29.34165 | 31154 ft | 469 kts | 25° |
| 2026-04-25 11:33 | 38.05541 | 29.36222 | 31519 ft | 468 kts | 37° |
| 2026-04-25 11:34 | 38.07963 | 29.38960 | 31877 ft | 466 kts | 49° |
| 2026-04-25 11:34 | 38.09899 | 29.42247 | 32238 ft | 465 kts | 60° |
| 2026-04-25 11:34 | 38.11286 | 29.45948 | 32504 ft | 465 kts | 70° |
| 2026-04-25 11:34 | 38.12463 | 29.49781 | 32808 ft | 466 kts | 70° |
| 2026-04-25 11:35 | 38.13634 | 29.53611 | 33154 ft | 466 kts | 70° |
| 2026-04-25 11:35 | 38.14808 | 29.57455 | 33469 ft | 467 kts | 70° |
| 2026-04-25 11:35 | 38.15985 | 29.61306 | 33808 ft | 468 kts | 70° |
| 2026-04-25 11:35 | 38.17223 | 29.65129 | 34119 ft | 469 kts | 64° |
| 2026-04-25 11:36 | 38.18917 | 29.68668 | 34411 ft | 470 kts | 53° |
| 2026-04-25 11:36 | 38.21102 | 29.71749 | 34707 ft | 470 kts | 41° |
| 2026-04-25 11:36 | 38.23697 | 29.74259 | 34977 ft | 469 kts | 30° |
| 2026-04-25 11:36 | 38.26611 | 29.76107 | 35231 ft | 468 kts | 19° |
| 2026-04-25 11:37 | 38.29735 | 29.77250 | 35485 ft | 466 kts | 9° |
| 2026-04-25 11:37 | 38.32917 | 29.78034 | 35743 ft | 466 kts | 9° |
| 2026-04-25 11:37 | 38.36103 | 29.78819 | 35959 ft | 467 kts | 9° |
| 2026-04-25 11:37 | 38.39293 | 29.79604 | 35995 ft | 465 kts | 9° |
| 2026-04-25 11:38 | 38.45590 | 29.81151 | 35997 ft | 464 kts | 9° |
| 2026-04-25 11:38 | 38.51930 | 29.82709 | 36000 ft | 463 kts | 9° |
| 2026-04-25 11:39 | 38.58277 | 29.84263 | 35996 ft | 464 kts | 9° |
| 2026-04-25 11:39 | 38.64608 | 29.85825 | 35995 ft | 463 kts | 9° |
| 2026-04-25 11:40 | 38.70930 | 29.87400 | 35997 ft | 462 kts | 9° |
| 2026-04-25 11:40 | 38.77240 | 29.88962 | 35993 ft | 462 kts | 8° |
| 2026-04-25 11:41 | 38.83517 | 29.90511 | 35990 ft | 462 kts | 9° |
| 2026-04-25 11:41 | 38.89820 | 29.92077 | 35990 ft | 462 kts | 9° |
| 2026-04-25 11:42 | 38.96135 | 29.93655 | 35991 ft | 462 kts | 9° |
| 2026-04-25 11:42 | 39.02442 | 29.95239 | 36006 ft | 461 kts | 9° |
| 2026-04-25 11:43 | 39.08735 | 29.96752 | 36008 ft | 458 kts | 5° |
| 2026-04-25 11:43 | 39.14998 | 29.96474 | 36006 ft | 452 kts | 346° |
| 2026-04-25 11:44 | 39.20886 | 29.93813 | 36009 ft | 448 kts | 334° |
| 2026-04-25 11:44 | 39.26599 | 29.90574 | 36004 ft | 449 kts | 335° |
| 2026-04-25 11:45 | 39.32312 | 29.87341 | 36002 ft | 449 kts | 335° |
| 2026-04-25 11:45 | 39.38035 | 29.84095 | 36002 ft | 449 kts | 335° |
| 2026-04-25 11:46 | 39.43764 | 29.80880 | 35998 ft | 449 kts | 337° |
| 2026-04-25 11:46 | 39.49495 | 29.77676 | 36000 ft | 449 kts | 336° |
| 2026-04-25 11:47 | 39.55220 | 29.74452 | 35995 ft | 449 kts | 336° |
| 2026-04-25 11:47 | 39.60948 | 29.71217 | 35995 ft | 449 kts | 336° |
| 2026-04-25 11:48 | 39.66684 | 29.67977 | 35739 ft | 448 kts | 337° |
| 2026-04-25 11:48 | 39.69543 | 29.66361 | 35490 ft | 448 kts | 338° |
| 2026-04-25 11:48 | 39.72410 | 29.64742 | 35241 ft | 448 kts | 337° |
| 2026-04-25 11:49 | 39.75286 | 29.63122 | 34996 ft | 451 kts | 338° |
| 2026-04-25 11:49 | 39.78112 | 29.61527 | 34759 ft | 449 kts | 338° |
| 2026-04-25 11:49 | 39.80974 | 29.59904 | 34471 ft | 448 kts | 338° |
| 2026-04-25 11:49 | 39.83853 | 29.58269 | 33518 ft | 453 kts | 338° |
| 2026-04-25 11:50 | 39.86757 | 29.56614 | 32432 ft | 459 kts | 338° |
| 2026-04-25 11:50 | 39.89678 | 29.54978 | 31432 ft | 454 kts | 341° |
| 2026-04-25 11:50 | 39.92649 | 29.53842 | 30867 ft | 437 kts | 349° |
| 2026-04-25 11:50 | 39.95620 | 29.53111 | 30234 ft | 433 kts | 351° |
| 2026-04-25 11:51 | 39.98577 | 29.52394 | 29530 ft | 431 kts | 351° |
| 2026-04-25 11:51 | 40.01511 | 29.51677 | 28897 ft | 427 kts | 351° |
| 2026-04-25 11:51 | 40.04415 | 29.50968 | 28292 ft | 422 kts | 351° |
| 2026-04-25 11:51 | 40.07292 | 29.50265 | 27689 ft | 419 kts | 351° |
| 2026-04-25 11:52 | 40.10150 | 29.49586 | 27139 ft | 413 kts | 354° |
| 2026-04-25 11:52 | 40.12952 | 29.49539 | 27019 ft | 395 kts | 8° |
| 2026-04-25 11:52 | 40.15558 | 29.50398 | 26931 ft | 384 kts | 22° |
| 2026-04-25 11:52 | 40.18057 | 29.51648 | 26843 ft | 385 kts | 22° |
| 2026-04-25 11:53 | 40.20520 | 29.52910 | 26757 ft | 386 kts | 22° |
| 2026-04-25 11:53 | 40.23017 | 29.54204 | 26663 ft | 385 kts | 22° |
| 2026-04-25 11:53 | 40.25506 | 29.55504 | 26580 ft | 385 kts | 23° |
| 2026-04-25 11:53 | 40.27994 | 29.56798 | 26494 ft | 386 kts | 22° |
| 2026-04-25 11:54 | 40.30496 | 29.58094 | 26402 ft | 386 kts | 22° |
| 2026-04-25 11:54 | 40.32988 | 29.59385 | 26327 ft | 385 kts | 22° |
| 2026-04-25 11:54 | 40.37972 | 29.61977 | 26085 ft | 392 kts | 22° |
| 2026-04-25 11:55 | 40.40549 | 29.63316 | 25836 ft | 401 kts | 22° |
| 2026-04-25 11:55 | 40.43153 | 29.64665 | 25590 ft | 403 kts | 22° |
| 2026-04-25 11:55 | 40.45758 | 29.66014 | 25346 ft | 402 kts | 22° |
| 2026-04-25 11:55 | 40.48362 | 29.67366 | 25104 ft | 401 kts | 22° |
| 2026-04-25 11:56 | 40.50927 | 29.68698 | 24863 ft | 400 kts | 22° |
| 2026-04-25 11:56 | 40.53511 | 29.70043 | 24626 ft | 399 kts | 22° |
| 2026-04-25 11:56 | 40.56083 | 29.71383 | 24400 ft | 398 kts | 22° |
| 2026-04-25 11:56 | 40.58658 | 29.72724 | 24149 ft | 396 kts | 22° |
| 2026-04-25 11:57 | 40.61202 | 29.74050 | 23656 ft | 391 kts | 22° |
| 2026-04-25 11:57 | 40.63724 | 29.75369 | 23062 ft | 389 kts | 22° |
| 2026-04-25 11:57 | 40.66232 | 29.76681 | 22485 ft | 386 kts | 22° |
| 2026-04-25 11:57 | 40.68717 | 29.77981 | 21916 ft | 383 kts | 22° |
| 2026-04-25 11:58 | 40.71193 | 29.79280 | 21358 ft | 381 kts | 22° |
| 2026-04-25 11:58 | 40.73651 | 29.80568 | 20826 ft | 379 kts | 22° |
| 2026-04-25 11:58 | 40.76096 | 29.81850 | 20296 ft | 377 kts | 22° |
| 2026-04-25 11:58 | 40.78530 | 29.83129 | 19784 ft | 376 kts | 22° |
| 2026-04-25 11:59 | 40.80957 | 29.84403 | 19261 ft | 375 kts | 22° |
| 2026-04-25 11:59 | 40.83377 | 29.85672 | 18776 ft | 374 kts | 22° |
| 2026-04-25 11:59 | 40.85784 | 29.86939 | 18305 ft | 372 kts | 22° |
| 2026-04-25 12:00 | 40.90540 | 29.89444 | 17302 ft | 368 kts | 21° |
| 2026-04-25 12:00 | 40.92910 | 29.90690 | 16851 ft | 365 kts | 21° |
| 2026-04-25 12:00 | 40.97593 | 29.93163 | 15934 ft | 360 kts | 21° |
| 2026-04-25 12:01 | 40.99911 | 29.94384 | 15524 ft | 356 kts | 20° |
| 2026-04-25 12:01 | 41.02282 | 29.95091 | 14846 ft | 347 kts | 1° |
| 2026-04-25 12:01 | 41.04654 | 29.94769 | 14076 ft | 341 kts | 342° |
| 2026-04-25 12:01 | 41.06735 | 29.93475 | 13854 ft | 319 kts | 325° |
| 2026-04-25 12:02 | 41.09477 | 29.89255 | 12844 ft | 299 kts | 295° |
| 2026-04-25 12:02 | 41.10395 | 29.86790 | 12170 ft | 297 kts | 295° |
| 2026-04-25 12:02 | 41.11306 | 29.84341 | 11534 ft | 295 kts | 295° |
| 2026-04-25 12:03 | 41.12212 | 29.81911 | 10901 ft | 293 kts | 294° |
| 2026-04-25 12:03 | 41.13038 | 29.79494 | 10270 ft | 288 kts | 283° |
| 2026-04-25 12:03 | 41.13191 | 29.76900 | 9619 ft | 281 kts | 259° |
| 2026-04-25 12:03 | 41.12520 | 29.74523 | 8966 ft | 273 kts | 234° |
| 2026-04-25 12:04 | 41.11207 | 29.72762 | 8295 ft | 268 kts | 211° |
| 2026-04-25 12:04 | 41.09514 | 29.71801 | 7597 ft | 265 kts | 197° |
| 2026-04-25 12:04 | 41.07763 | 29.71072 | 7144 ft | 256 kts | 197° |
| 2026-04-25 12:04 | 41.06131 | 29.70407 | 6981 ft | 237 kts | 197° |
| 2026-04-25 12:05 | 41.04653 | 29.69514 | 6569 ft | 232 kts | 214° |
| 2026-04-25 12:05 | 41.03505 | 29.68019 | 5943 ft | 237 kts | 234° |
| 2026-04-25 12:05 | 41.02703 | 29.66111 | 5443 ft | 235 kts | 243° |
| 2026-04-25 12:05 | 41.02002 | 29.64160 | 5174 ft | 233 kts | 244° |
| 2026-04-25 12:06 | 41.01313 | 29.62242 | 4647 ft | 230 kts | 243° |
| 2026-04-25 12:06 | 41.00617 | 29.60327 | 4029 ft | 231 kts | 243° |
| 2026-04-25 12:06 | 40.99930 | 29.58442 | 3707 ft | 221 kts | 244° |
| 2026-04-25 12:06 | 40.99270 | 29.56631 | 3526 ft | 217 kts | 244° |
| 2026-04-25 12:07 | 40.98623 | 29.54857 | 3513 ft | 217 kts | 244° |
| 2026-04-25 12:07 | 40.97956 | 29.53030 | 3508 ft | 217 kts | 244° |
| 2026-04-25 12:07 | 40.97303 | 29.51242 | 3514 ft | 216 kts | 244° |
| 2026-04-25 12:07 | 40.96648 | 29.49448 | 3460 ft | 217 kts | 244° |
| 2026-04-25 12:08 | 40.96012 | 29.47710 | 3218 ft | 205 kts | 244° |
| 2026-04-25 12:08 | 40.95411 | 29.46067 | 2937 ft | 194 kts | 244° |
| 2026-04-25 12:08 | 40.94840 | 29.44507 | 2625 ft | 182 kts | 244° |
| 2026-04-25 12:08 | 40.94305 | 29.43046 | 2350 ft | 171 kts | 244° |
| 2026-04-25 12:09 | 40.93796 | 29.41658 | 2087 ft | 163 kts | 244° |
| 2026-04-25 12:09 | 40.93307 | 29.40327 | 1860 ft | 158 kts | 244° |
| 2026-04-25 12:09 | 40.92826 | 29.39036 | 1638 ft | 155 kts | 244° |
| 2026-04-25 12:09 | 40.92354 | 29.37769 | 1420 ft | 151 kts | 244° |
| 2026-04-25 12:10 | 40.91911 | 29.36516 | 1185 ft | 150 kts | 246° |
| 2026-04-25 12:10 | 40.91451 | 29.35281 | 925 ft | 148 kts | 244° |
| 2026-04-25 12:10 | 40.91005 | 29.34048 | 672 ft | 150 kts | 245° |
| 2026-04-25 12:10 | 40.90548 | 29.32812 | 427 ft | 149 kts | 244° |
| 2026-04-25 12:11 | 40.90111 | 29.31624 | 314 ft | 137 kts | 246° |
| 2026-04-25 12:11 | 40.89766 | 29.30675 | 310 ft | 90 kts | 244° |
| 2026-04-25 12:11 | 40.89566 | 29.30134 | 309 ft | 41 kts | 244° |
| 2026-04-25 12:11 | 40.89442 | 29.29799 | 309 ft | 40 kts | 244° |
| 2026-04-25 12:12 | 40.89341 | 29.29526 | 308 ft | 22 kts | 244° |
| 2026-04-25 12:12 | 40.89294 | 29.29394 | 304 ft | 25 kts | 247° |
| 2026-04-25 12:12 | 40.89410 | 29.29254 | 305 ft | 19 kts | 357° |
| 2026-04-25 12:12 | 40.89495 | 29.29373 | 303 ft | 20 kts | 63° |
| 2026-04-25 12:13 | 40.89559 | 29.29547 | 302 ft | 22 kts | 64° |
| 2026-04-25 12:13 | 40.89629 | 29.29736 | 307 ft | 23 kts | 64° |
| 2026-04-25 12:13 | 40.89700 | 29.29929 | 307 ft | 24 kts | 64° |